Time;durP1;ratioP1;P1;durP2;ratioP2;P2;SDS_P1;SDS_P2;PMS_P1;PMS_P2;Temp;Humidity;BMP_temperature;BMP_pressure;BME280_temperature;BME280_humidity;BME280_pressure;Samples;Min_cycle;Max_cycle;Signal;HPM_P1;HPM_P2
2023/03/18 00:00:26;;;;;;;1999.90;999.90;;;;;;;6.46;100.00;94622.25;5086218;28;20180;-67
2023/03/18 00:02:51;;;;;;;1999.90;999.90;;;;;;;6.42;100.00;94621.50;5085458;28;20185;-66
2023/03/18 00:05:18;;;;;;;1999.90;999.90;;;;;;;6.40;100.00;94623.81;5085445;28;20176;-67
2023/03/18 00:07:46;;;;;;;1999.90;999.90;;;;;;;6.37;100.00;94619.19;5085201;28;20283;-69
2023/03/18 00:10:12;;;;;;;1999.90;999.90;;;;;;;6.36;100.00;94628.50;5085758;28;20243;-68
2023/03/18 00:12:39;;;;;;;1999.90;999.90;;;;;;;6.33;100.00;94629.28;5085328;28;20172;-67
2023/03/18 00:15:07;;;;;;;1999.90;999.90;;;;;;;6.29;100.00;94628.53;5085336;28;20179;-67
2023/03/18 00:17:33;;;;;;;1999.90;999.90;;;;;;;6.27;100.00;94630.88;5085165;28;20171;-68
2023/03/18 00:20:04;;;;;;;1999.90;999.90;;;;;;;6.26;100.00;94623.88;5085848;28;20176;-68
2023/03/18 00:22:31;;;;;;;1999.90;999.90;;;;;;;6.26;100.00;94618.47;5084715;28;20169;-68
2023/03/18 00:24:56;;;;;;;1999.90;999.90;;;;;;;6.26;100.00;94619.25;5085519;28;20290;-65
2023/03/18 00:27:22;;;;;;;1999.90;999.90;;;;;;;6.25;100.00;94617.72;5084746;28;20231;-67
2023/03/18 00:29:48;;;;;;;1999.90;999.90;;;;;;;6.21;100.00;94621.59;5085651;28;20422;-67
2023/03/18 00:32:14;;;;;;;1999.90;999.90;;;;;;;6.18;100.00;94619.66;5084813;28;20206;-66
2023/03/18 00:34:40;;;;;;;1999.90;999.90;;;;;;;6.16;100.00;94619.31;5084787;28;20241;-70
2023/03/18 00:37:07;;;;;;;1999.90;999.90;;;;;;;6.16;100.00;94613.88;5084935;28;20474;-69
2023/03/18 00:39:32;;;;;;;1999.90;999.90;;;;;;;6.16;100.00;94611.16;5084737;28;20188;-69
2023/03/18 00:42:00;;;;;;;1999.90;999.90;;;;;;;6.15;100.00;94598.75;5085174;28;20172;-68
2023/03/18 00:44:26;;;;;;;1999.90;999.90;;;;;;;6.11;100.00;94601.50;5085180;28;20232;-68
2023/03/18 00:46:51;;;;;;;1999.90;999.90;;;;;;;6.06;100.00;94603.84;5104196;28;20227;-68
2023/03/18 00:49:17;;;;;;;1999.90;999.90;;;;;;;5.96;100.00;94616.28;5087386;28;20186;-68
2023/03/18 00:51:43;;;;;;;1999.90;999.90;;;;;;;5.90;100.00;94606.25;5087373;28;20201;-68
2023/03/18 00:54:12;;;;;;;1999.90;999.90;;;;;;;5.91;100.00;94613.19;5086373;28;20201;-67
2023/03/18 00:56:38;;;;;;;1999.90;999.90;;;;;;;5.92;100.00;94609.31;5087151;28;20184;-68
2023/03/18 00:59:05;;;;;;;1999.90;999.90;;;;;;;5.90;100.00;94606.25;5086924;28;20176;-68
2023/03/18 01:01:31;;;;;;;1999.90;999.90;;;;;;;5.89;100.00;94610.88;5087456;28;20183;-69
2023/03/18 01:03:57;;;;;;;1999.90;999.90;;;;;;;5.87;100.00;94609.72;5087293;28;20205;-68
2023/03/18 01:06:27;;;;;;;1999.90;999.90;;;;;;;5.86;100.00;94605.47;5087340;28;20213;-68
2023/03/18 01:08:54;;;;;;;1999.90;999.90;;;;;;;5.86;100.00;94613.59;5087447;28;20246;-68
2023/03/18 01:11:19;;;;;;;1999.90;999.90;;;;;;;5.82;100.00;94618.25;5086755;28;20171;-68
2023/03/18 01:13:45;;;;;;;1999.90;999.90;;;;;;;5.76;100.00;94617.09;5087206;28;20170;-68
2023/03/18 01:16:10;;;;;;;1999.90;999.90;;;;;;;5.75;100.00;94602.75;5086691;28;20233;-68
2023/03/18 01:18:37;;;;;;;1999.90;999.90;;;;;;;5.72;100.00;94589.25;5083976;28;20367;-69
2023/03/18 01:21:03;;;;;;;1999.90;999.90;;;;;;;5.73;100.00;94585.38;5084712;28;20170;-69
2023/03/18 01:23:29;;;;;;;1999.90;999.90;;;;;;;5.70;100.00;94589.63;5084500;28;20178;-69
2023/03/18 01:25:56;;;;;;;1999.90;999.90;;;;;;;5.68;100.00;94593.91;5084086;28;20166;-66
2023/03/18 01:28:21;;;;;;;1999.90;999.90;;;;;;;5.69;100.00;94581.91;5083683;28;20219;-67
2023/03/18 01:30:47;;;;;;;1999.90;999.90;;;;;;;5.66;100.00;94583.47;5084420;28;20174;-68
2023/03/18 01:33:12;;;;;;;1999.90;999.90;;;;;;;5.64;100.00;94577.66;5084056;28;20174;-67
2023/03/18 01:35:38;;;;;;;1999.90;999.90;;;;;;;5.63;100.00;94572.63;5083667;28;20190;-68
2023/03/18 01:38:05;;;;;;;1999.90;999.90;;;;;;;5.60;100.00;94573.41;5083986;28;20167;-68
2023/03/18 01:40:33;;;;;;;1999.90;999.90;;;;;;;5.63;100.00;94564.50;5083937;28;20251;-67
2023/03/18 01:43:12;;;;;;;1999.90;999.90;;;;;;;5.64;100.00;94550.56;5084099;28;20197;-68
2023/03/18 01:45:37;;;;;;;1999.90;999.90;;;;;;;5.65;100.00;94562.19;5084481;28;20229;-68
2023/03/18 01:48:03;;;;;;;1999.90;999.90;;;;;;;5.65;100.00;94562.94;5083693;28;20208;-69
2023/03/18 01:50:36;;;;;;;1999.90;999.90;;;;;;;5.62;100.00;94568.38;5083918;28;20202;-68
2023/03/18 01:53:07;;;;;;;1999.90;999.90;;;;;;;5.61;100.00;94564.13;5084269;28;20241;-67
2023/03/18 01:55:35;;;;;;;1999.90;999.90;;;;;;;5.62;100.00;94563.75;5083886;28;20187;-68
2023/03/18 01:58:05;;;;;;;1999.90;999.90;;;;;;;5.66;100.00;94569.13;5083670;28;20194;-68
2023/03/18 02:00:31;;;;;;;1999.90;999.90;;;;;;;5.68;100.00;94561.41;5083806;28;20171;-67
2023/03/18 02:02:57;;;;;;;1999.90;999.90;;;;;;;5.71;100.00;94566.78;5083515;28;20164;-69
2023/03/18 02:05:25;;;;;;;1999.90;999.90;;;;;;;5.78;100.00;94568.69;5087001;28;20179;-68
2023/03/18 02:07:51;;;;;;;1999.90;999.90;;;;;;;5.85;100.00;94560.56;5087611;28;20264;-69
2023/03/18 02:10:25;;;;;;;1999.90;999.90;;;;;;;5.91;100.00;94575.28;5087758;28;20196;-69
2023/03/18 02:12:56;;;;;;;1999.90;999.90;;;;;;;5.94;100.00;94585.31;5087884;28;20276;-70
2023/03/18 02:15:24;;;;;;;1999.90;999.90;;;;;;;5.96;100.00;94593.81;5088014;28;20172;-70
2023/03/18 02:17:59;;;;;;;1999.90;999.90;;;;;;;5.95;100.00;94622.88;5087436;28;20176;-69
2023/03/18 02:20:47;;;;;;;1999.90;999.90;;;;;;;5.94;100.00;94629.44;5087930;28;20188;-69
2023/03/18 02:23:49;;;;;;;1999.90;999.90;;;;;;;5.97;100.00;94644.13;5087820;28;20199;-69
2023/03/18 02:26:33;;;;;;;1999.90;999.90;;;;;;;5.95;100.00;94660.00;5087907;28;20162;-69
2023/03/18 02:29:03;;;;;;;1999.90;999.90;;;;;;;5.90;100.00;94671.25;5087290;28;20260;-69
2023/03/18 02:31:30;;;;;;;1999.90;999.90;;;;;;;5.84;100.00;94679.00;5087413;28;20175;-69
2023/03/18 02:33:57;;;;;;;1999.90;999.90;;;;;;;5.82;100.00;94670.50;5087383;28;20226;-69
2023/03/18 02:36:27;;;;;;;1999.90;999.90;;;;;;;5.82;100.00;94677.84;5087624;28;20253;-69
2023/03/18 02:38:54;;;;;;;1999.90;999.90;;;;;;;5.81;100.00;94681.72;5087011;28;20225;-69
2023/03/18 02:41:26;;;;;;;1999.90;999.90;;;;;;;5.79;100.00;94681.31;5087409;28;20172;-66
2023/03/18 02:43:52;;;;;;;1999.90;999.90;;;;;;;5.79;100.00;94692.91;5087362;28;20172;-66
2023/03/18 02:46:22;;;;;;;1999.90;999.90;;;;;;;5.83;100.00;94682.13;5086736;28;20235;-66
2023/03/18 02:48:48;;;;;;;1999.90;999.90;;;;;;;5.87;100.00;94680.91;5086755;28;20178;-68
2023/03/18 02:51:15;;;;;;;1999.90;999.90;;;;;;;5.91;100.00;94678.97;5086809;28;20175;-68
2023/03/18 02:53:41;;;;;;;1999.90;999.90;;;;;;;5.96;100.00;94691.34;5086758;28;20197;-68
2023/03/18 02:56:07;;;;;;;1999.90;999.90;;;;;;;6.00;100.00;94700.25;5086561;28;20174;-69
2023/03/18 02:58:33;;;;;;;1999.90;999.90;;;;;;;6.02;100.00;94700.66;5087084;28;20175;-69
2023/03/18 03:00:59;;;;;;;1999.90;999.90;;;;;;;6.09;100.00;94708.75;5087151;28;20247;-67
2023/03/18 03:03:25;;;;;;;1999.90;999.90;;;;;;;6.15;100.00;94715.31;5086388;28;20183;-67
2023/03/18 03:05:51;;;;;;;1999.90;999.90;;;;;;;6.19;100.00;94730.41;5086493;28;20206;-69
2023/03/18 03:08:17;;;;;;;1999.90;999.90;;;;;;;6.24;100.00;94740.84;5087032;28;20265;-68
2023/03/18 03:10:43;;;;;;;1999.90;999.90;;;;;;;6.26;100.00;94749.38;5086364;28;20361;-67
2023/03/18 03:13:10;;;;;;;1999.90;999.90;;;;;;;6.26;100.00;94762.13;5086830;28;20248;-67
2023/03/18 03:15:37;;;;;;;1999.90;999.90;;;;;;;6.27;100.00;94766.41;5085880;28;20224;-68
2023/03/18 03:18:04;;;;;;;1999.90;999.90;;;;;;;6.26;100.00;94772.97;5086276;28;20182;-68
2023/03/18 03:20:34;;;;;;;1999.90;999.90;;;;;;;6.27;100.00;94779.97;5086299;28;20196;-66
2023/03/18 03:23:04;;;;;;;1999.90;999.90;;;;;;;6.29;100.00;94785.75;5086218;28;20179;-67
2023/03/18 03:25:31;;;;;;;1999.90;999.90;;;;;;;6.32;100.00;94793.13;5086135;28;20173;-68
2023/03/18 03:27:57;;;;;;;1999.90;999.90;;;;;;;6.33;100.00;94797.38;5085903;28;20235;-68
2023/03/18 03:30:22;;;;;;;1999.90;999.90;;;;;;;6.35;100.00;94806.66;5086073;28;20210;-67
2023/03/18 03:32:48;;;;;;;1999.90;999.90;;;;;;;6.40;100.00;94808.97;5085769;28;20240;-67
2023/03/18 03:35:17;;;;;;;1999.90;999.90;;;;;;;6.43;100.00;94802.78;5086015;28;20210;-68
2023/03/18 03:37:43;;;;;;;1999.90;999.90;;;;;;;6.49;100.00;94811.28;5086012;28;20168;-69
2023/03/18 03:40:14;;;;;;;1999.90;999.90;;;;;;;6.54;100.00;94829.88;5086616;28;20202;-68
2023/03/18 03:42:40;;;;;;;1999.90;999.90;;;;;;;6.56;100.00;94827.56;5086028;28;20163;-67
2023/03/18 03:45:06;;;;;;;1999.90;999.90;;;;;;;6.58;100.00;94830.63;5085424;28;20179;-68
2023/03/18 03:47:32;;;;;;;1999.90;999.90;;;;;;;6.63;100.00;94836.44;5085621;28;20203;-68
2023/03/18 03:49:57;;;;;;;1999.90;999.90;;;;;;;6.61;100.00;94840.69;5085418;28;20223;-68
2023/03/18 03:52:23;;;;;;;1999.90;999.90;;;;;;;6.66;100.00;94853.84;5085646;28;20239;-68
2023/03/18 03:54:49;;;;;;;1999.90;999.90;;;;;;;6.67;100.00;94850.75;5085701;28;20191;-70
2023/03/18 03:57:15;;;;;;;1999.90;999.90;;;;;;;6.74;100.00;94861.59;5085661;28;20169;-68
2023/03/18 03:59:41;;;;;;;1999.90;999.90;;;;;;;6.78;100.00;94875.94;5085768;28;20180;-68
2023/03/18 04:02:06;;;;;;;1999.90;999.90;;;;;;;6.79;100.00;94874.00;5085510;28;20254;-68
2023/03/18 04:04:32;;;;;;;1999.90;999.90;;;;;;;6.77;100.00;94882.53;5085363;28;20181;-67
2023/03/18 04:06:57;;;;;;;1999.90;999.90;;;;;;;6.77;100.00;94881.75;5085968;28;20200;-66
2023/03/18 04:09:23;;;;;;;1999.90;999.90;;;;;;;6.75;100.00;94886.78;5085338;28;20256;-65
2023/03/18 04:11:48;;;;;;;1999.90;999.90;;;;;;;6.75;100.00;94894.94;5085240;28;20199;-66
2023/03/18 04:14:15;;;;;;;1999.90;999.90;;;;;;;6.78;100.00;94894.16;5085913;28;20250;-64
2023/03/18 04:16:40;;;;;;;1999.90;999.90;;;;;;;6.77;100.00;94903.44;5085640;28;20176;-65
2023/03/18 04:19:06;;;;;;;1999.90;999.90;;;;;;;6.75;100.00;94905.78;5085720;28;20179;-65
2023/03/18 04:21:32;;;;;;;1999.90;999.90;;;;;;;6.73;100.00;94914.31;5085572;28;20212;-66
2023/03/18 04:23:58;;;;;;;1999.90;999.90;;;;;;;6.68;100.00;94906.59;5084949;28;20173;-65
2023/03/18 04:26:23;;;;;;;1999.90;999.90;;;;;;;6.65;100.00;94906.56;5084912;28;20210;-65
2023/03/18 04:28:49;;;;;;;1999.90;999.90;;;;;;;6.62;100.00;94901.91;5084522;28;20230;-67
2023/03/18 04:31:15;;;;;;;1999.90;999.90;;;;;;;6.58;100.00;94901.94;5085404;28;20330;-66
2023/03/18 04:33:40;;;;;;;1999.90;999.90;;;;;;;6.56;100.00;94900.78;5084800;28;20169;-66
2023/03/18 04:36:07;;;;;;;1999.90;999.90;;;;;;;6.53;100.00;94909.69;5084712;28;20171;-66
2023/03/18 04:38:33;;;;;;;1999.90;999.90;;;;;;;6.50;100.00;94896.91;5085501;28;20172;-66
2023/03/18 04:40:58;;;;;;;1999.90;999.90;;;;;;;6.55;100.00;94904.63;5084557;28;20175;-66
2023/03/18 04:43:23;;;;;;;1999.90;999.90;;;;;;;6.58;100.00;94901.94;5084725;28;20176;-67
2023/03/18 04:45:49;;;;;;;1999.90;999.90;;;;;;;6.61;100.00;94900.38;5084834;28;20236;-68
2023/03/18 04:48:15;;;;;;;1999.90;999.90;;;;;;;6.62;100.00;94907.34;5084988;28;20199;-67
2023/03/18 04:50:40;;;;;;;1999.90;999.90;;;;;;;6.60;100.00;94909.69;5085308;28;20173;-67
2023/03/18 04:53:06;;;;;;;1999.90;999.90;;;;;;;6.58;100.00;94915.50;5084469;28;20172;-65
2023/03/18 04:55:32;;;;;;;1999.90;999.90;;;;;;;6.60;100.00;94906.97;5084270;28;20366;-65
2023/03/18 04:57:58;;;;;;;1999.90;999.90;;;;;;;6.61;100.00;94900.38;5084361;28;20233;-66
2023/03/18 05:00:23;;;;;;;1999.90;999.90;;;;;;;6.63;100.00;94908.91;5084726;28;20175;-67
2023/03/18 05:02:49;;;;;;;1999.90;999.90;;;;;;;6.67;100.00;94899.59;5084356;28;20174;-67
2023/03/18 05:05:14;;;;;;;1999.90;999.90;;;;;;;6.72;100.00;94906.56;5084514;28;20182;-67
2023/03/18 05:07:41;;;;;;;1999.90;999.90;;;;;;;6.78;100.00;94911.19;5084709;28;20205;-68
2023/03/18 05:10:07;;;;;;;1999.90;999.90;;;;;;;6.81;100.00;94909.63;5084689;28;20209;-68
2023/03/18 05:12:33;;;;;;;1999.90;999.90;;;;;;;6.82;100.00;94905.78;5084125;28;20176;-69
2023/03/18 05:14:59;;;;;;;1999.90;999.90;;;;;;;6.82;100.00;94911.22;5084091;28;20195;-69
2023/03/18 05:17:25;;;;;;;1999.90;999.90;;;;;;;6.82;100.00;94916.63;5084101;28;20170;-69
2023/03/18 05:19:50;;;;;;;1999.90;999.90;;;;;;;6.83;100.00;94923.59;5084520;28;20457;-68
2023/03/18 05:22:17;;;;;;;1999.90;999.90;;;;;;;6.86;100.00;94920.13;5084015;28;20218;-68
2023/03/18 05:24:44;;;;;;;1999.90;999.90;;;;;;;6.89;100.00;94927.47;5084235;28;20173;-68
2023/03/18 05:27:10;;;;;;;1999.90;999.90;;;;;;;6.91;100.00;94925.13;5084137;28;20334;-68
2023/03/18 05:29:39;;;;;;;1999.90;999.90;;;;;;;6.94;100.00;94935.22;5084513;28;20171;-68
2023/03/18 05:32:05;;;;;;;1999.90;999.90;;;;;;;6.96;100.00;94938.31;5084486;28;20176;-68
2023/03/18 05:34:32;;;;;;;1999.90;999.90;;;;;;;7.02;100.00;94947.59;5083916;28;20172;-68
2023/03/18 05:36:57;;;;;;;1999.90;999.90;;;;;;;7.23;100.00;94941.34;5083947;28;20182;-68
2023/03/18 05:39:23;;;;;;;1999.90;999.90;;;;;;;7.50;100.00;94943.19;5083326;28;20171;-68
2023/03/18 05:41:48;;;;;;;1999.90;999.90;;;;;;;7.57;100.00;94945.88;5083883;28;20215;-67
2023/03/18 05:44:13;;;;;;;1999.90;999.90;;;;;;;7.57;100.00;94951.31;5083835;28;20176;-68
2023/03/18 05:46:39;;;;;;;1999.90;999.90;;;;;;;7.53;100.00;94961.41;5084004;28;20208;-67
2023/03/18 05:49:04;;;;;;;1999.90;999.90;;;;;;;7.50;100.00;94956.75;5083937;28;20180;-67
2023/03/18 05:51:30;;;;;;;1999.90;999.90;;;;;;;7.48;100.00;94971.91;5083771;28;20376;-67
2023/03/18 05:53:55;;;;;;;1999.90;999.90;;;;;;;7.46;100.00;94977.72;5084204;28;20269;-66
2023/03/18 05:56:21;;;;;;;1999.90;999.90;;;;;;;7.41;100.00;94985.50;5083715;28;20172;-66
2023/03/18 05:58:46;;;;;;;1999.90;999.90;;;;;;;7.37;100.00;94982.81;5083931;28;20243;-65
2023/03/18 06:01:12;;;;;;;1999.90;999.90;;;;;;;7.35;100.00;94987.09;5084145;28;20209;-65
2023/03/18 06:03:38;;;;;;;1999.90;999.90;;;;;;;7.35;100.00;94981.66;5083558;28;20208;-65
2023/03/18 06:06:04;;;;;;;1999.90;999.90;;;;;;;7.34;100.00;94978.16;5083871;28;20169;-67
2023/03/18 06:08:29;;;;;;;1999.90;999.90;;;;;;;7.35;100.00;94977.00;5083366;28;20171;-65
2023/03/18 06:10:54;;;;;;;1999.90;999.90;;;;;;;7.41;100.00;94980.88;5084128;28;20193;-63
2023/03/18 06:13:20;;;;;;;1999.90;999.90;;;;;;;7.51;100.00;94980.06;5084119;28;20178;-66
2023/03/18 06:15:46;;;;;;;1999.90;999.90;;;;;;;7.56;100.00;94985.06;5083431;28;20176;-64
2023/03/18 06:18:12;;;;;;;1999.90;999.90;;;;;;;7.59;100.00;94981.59;5083463;28;20294;-66
2023/03/18 06:20:37;;;;;;;1999.90;999.90;;;;;;;7.69;100.00;94980.78;5083412;28;20179;-67
2023/03/18 06:23:04;;;;;;;1999.90;999.90;;;;;;;7.77;100.00;94986.94;5083407;28;20173;-66
2023/03/18 06:25:29;;;;;;;1999.90;999.90;;;;;;;7.83;100.00;94985.38;5083453;28;20188;-68
2023/03/18 06:27:55;;;;;;;1999.90;999.90;;;;;;;7.88;100.00;94991.16;5083404;28;20285;-67
2023/03/18 06:30:20;;;;;;;1999.90;999.90;;;;;;;8.00;100.00;94996.16;5083324;28;20196;-68
2023/03/18 06:32:46;;;;;;;1999.90;999.90;;;;;;;8.09;100.00;94993.75;5083296;28;20422;-67
2023/03/18 06:35:12;;;;;;;1999.90;999.90;;;;;;;8.19;100.00;94998.38;5083245;28;20169;-67
2023/03/18 06:37:38;;;;;;;1999.90;999.90;;;;;;;8.27;100.00;94999.91;5083786;28;20165;-68
2023/03/18 06:40:05;;;;;;;1999.90;999.90;;;;;;;8.40;100.00;95003.72;5083657;28;20241;-66
2023/03/18 06:42:31;;;;;;;1999.90;999.90;;;;;;;8.51;100.00;95018.03;5083618;28;20195;-66
2023/03/18 06:44:57;;;;;;;1999.90;999.90;;;;;;;8.64;100.00;95012.91;5083651;28;20316;-65
2023/03/18 06:47:22;;;;;;;1999.90;999.90;;;;;;;8.79;100.00;95017.84;5083658;28;20239;-64
2023/03/18 06:49:49;;;;;;;1999.90;999.90;;;;;;;8.98;100.00;95011.84;5083290;28;20174;-68
2023/03/18 06:52:16;;;;;;;1999.90;999.90;;;;;;;9.08;100.00;95027.34;5085562;28;20172;-68
2023/03/18 06:54:42;;;;;;;1999.90;999.90;;;;;;;9.24;100.00;95024.84;5086817;28;20397;-63
2023/03/18 06:57:07;;;;;;;1999.90;999.90;;;;;;;9.40;100.00;95032.50;5086653;28;20169;-63
2023/03/18 06:59:33;;;;;;;1999.90;999.90;;;;;;;9.58;100.00;95036.56;5086833;28;20173;-64
2023/03/18 07:01:58;;;;;;;1999.90;999.90;;;;;;;9.79;100.00;95030.91;5086247;28;20170;-65
2023/03/18 07:04:24;;;;;;;1999.90;999.90;;;;;;;9.98;100.00;95034.94;5086794;28;20241;-65
2023/03/18 07:06:51;;;;;;;1999.90;999.90;;;;;;;10.14;100.00;95044.13;5086463;28;20207;-64
2023/03/18 07:09:17;;;;;;;1999.90;999.90;;;;;;;10.25;100.00;95054.94;5087055;28;20171;-64
2023/03/18 07:11:44;;;;;;;1999.90;999.90;;;;;;;10.42;100.00;95053.16;5086420;28;20172;-63
2023/03/18 07:14:10;;;;;;;1999.90;999.90;;;;;;;10.49;100.00;95047.59;5086472;28;20173;-63
2023/03/18 07:16:35;;;;;;;1999.90;999.90;;;;;;;10.62;100.00;95043.13;5086076;28;20180;-65
2023/03/18 07:19:01;;;;;;;1999.90;999.90;;;;;;;10.76;100.00;95049.16;5086960;28;20169;-62
2023/03/18 07:21:28;;;;;;;1999.90;999.90;;;;;;;11.03;100.00;95054.63;5086289;28;20178;-61
2023/03/18 07:23:54;;;;;;;1999.90;999.90;;;;;;;11.20;100.00;95064.47;5086701;28;20328;-60
2023/03/18 07:26:20;;;;;;;1999.90;999.90;;;;;;;11.41;100.00;95059.47;5086673;28;20348;-60
2023/03/18 07:28:46;;;;;;;1999.90;999.90;;;;;;;11.56;100.00;95058.03;5086414;28;20250;-60
2023/03/18 07:31:12;;;;;;;1999.90;999.90;;;;;;;11.68;100.00;95062.91;5086842;28;20172;-61
2023/03/18 07:33:38;;;;;;;1999.90;999.90;;;;;;;11.79;100.00;95068.19;5085914;28;20177;-59
2023/03/18 07:36:03;;;;;;;1999.90;999.90;;;;;;;12.17;100.00;95072.16;5086368;28;20181;-61
2023/03/18 07:38:29;;;;;;;1999.90;999.90;;;;;;;12.32;100.00;95073.44;5086539;28;20177;-60
2023/03/18 07:40:55;;;;;;;1999.90;999.90;;;;;;;12.60;100.00;95070.09;5085853;28;20180;-62
2023/03/18 07:43:21;;;;;;;1999.90;999.90;;;;;;;12.98;100.00;95065.75;5085866;28;20363;-60
2023/03/18 07:45:46;;;;;;;1999.90;999.90;;;;;;;13.18;100.00;95069.19;5085834;28;20180;-60
2023/03/18 07:48:13;;;;;;;1999.90;999.90;;;;;;;13.11;100.00;95061.13;5085571;28;20201;-60
2023/03/18 07:50:38;;;;;;;1999.90;999.90;;;;;;;13.29;100.00;95064.22;5086117;28;20446;-59
2023/03/18 07:53:03;;;;;;;1999.90;999.90;;;;;;;13.65;100.00;95064.16;5085727;28;20176;-60
2023/03/18 07:55:29;;;;;;;1999.90;999.90;;;;;;;13.90;100.00;95065.03;5085604;28;20200;-59
2023/03/18 07:57:54;;;;;;;1999.90;999.90;;;;;;;14.06;100.00;95070.50;5085326;28;20413;-61
2023/03/18 08:00:21;;;;;;;1999.90;999.90;;;;;;;14.33;100.00;95072.94;5085941;28;20203;-60
2023/03/18 08:02:51;;;;;;;1999.90;999.90;;;;;;;14.62;100.00;95079.16;5085583;28;20169;-60
2023/03/18 08:05:18;;;;;;;1999.90;999.90;;;;;;;14.83;100.00;95075.81;5086099;28;20474;-59
2023/03/18 08:07:43;;;;;;;1999.90;999.90;;;;;;;15.23;100.00;95077.69;5085226;28;20205;-60
2023/03/18 08:10:10;;;;;;;1999.90;999.90;;;;;;;15.64;100.00;95083.09;5085215;28;20223;-60
2023/03/18 08:12:36;;;;;;;1999.90;999.90;;;;;;;15.77;100.00;95083.81;5085272;28;20181;-60
2023/03/18 08:15:01;;;;;;;1999.90;999.90;;;;;;;16.02;100.00;95077.47;5085647;28;20189;-60
2023/03/18 08:17:27;;;;;;;1999.90;999.90;;;;;;;15.98;100.00;95080.38;5085505;28;20249;-59
2023/03/18 08:19:52;;;;;;;1999.90;999.90;;;;;;;16.12;100.00;95082.63;5085091;28;20195;-61
2023/03/18 08:22:18;;;;;;;1999.90;999.90;;;;;;;16.10;100.00;95079.53;5084943;28;20177;-59
2023/03/18 08:24:44;;;;;;;1999.90;999.90;;;;;;;16.15;100.00;95081.75;5085412;28;20246;-60
2023/03/18 08:27:10;;;;;;;1999.90;999.90;;;;;;;16.30;100.00;95082.78;5085264;28;20208;-60
2023/03/18 08:29:35;;;;;;;1999.90;999.90;;;;;;;16.56;100.00;95083.47;5085141;28;20177;-59
2023/03/18 08:32:01;;;;;;;1999.90;999.90;;;;;;;16.61;98.95;95095.91;5084806;28;20218;-61
2023/03/18 08:34:26;;;;;;;1999.90;999.90;;;;;;;16.73;95.28;95092.31;5084829;28;20174;-60
2023/03/18 08:36:52;;;;;;;1999.90;999.90;;;;;;;16.76;93.75;95074.88;5084716;28;20216;-58
2023/03/18 08:39:17;;;;;;;1999.90;999.90;;;;;;;16.71;94.48;95073.44;5084521;28;20462;-59
2023/03/18 08:41:43;;;;;;;1999.90;999.90;;;;;;;16.64;92.48;95078.47;5084675;28;20184;-59
2023/03/18 08:44:09;;;;;;;1999.90;999.90;;;;;;;16.80;91.38;95081.00;5085031;28;20181;-62
2023/03/18 08:46:36;;;;;;;1999.90;999.90;;;;;;;16.97;89.91;95082.34;5085339;28;20205;-61
2023/03/18 08:49:02;;;;;;;1999.90;999.90;;;;;;;17.52;88.11;95075.88;5084426;28;20371;-62
2023/03/18 08:51:28;;;;;;;1999.90;999.90;;;;;;;17.86;83.91;95075.66;5084386;28;20177;-62
2023/03/18 08:53:54;;;;;;;1999.90;999.90;;;;;;;17.92;80.10;95073.81;5084263;28;20231;-60
2023/03/18 08:56:19;;;;;;;1999.90;999.90;;;;;;;18.07;75.06;95075.50;5084478;28;20181;-60
2023/03/18 08:58:44;;;;;;;1999.90;999.90;;;;;;;18.34;72.30;95074.78;5084328;28;20184;-60
2023/03/18 09:01:11;;;;;;;1999.90;999.90;;;;;;;18.43;70.71;95080.34;5084823;28;20182;-59
2023/03/18 09:03:36;;;;;;;1999.90;999.90;;;;;;;18.53;66.59;95087.38;5084369;28;20177;-60
2023/03/18 09:06:02;;;;;;;1999.90;999.90;;;;;;;19.09;66.39;95079.31;5084226;28;20211;-60
2023/03/18 09:08:28;;;;;;;1999.90;999.90;;;;;;;19.53;65.01;95083.19;5084683;28;20201;-60
2023/03/18 09:10:53;;;;;;;1999.90;999.90;;;;;;;19.72;64.10;95076.31;5083901;28;20388;-60
2023/03/18 09:13:20;;;;;;;1999.90;999.90;;;;;;;20.18;60.57;95069.28;5084094;28;20177;-60
2023/03/18 09:15:46;;;;;;;1999.90;999.90;;;;;;;20.24;60.46;95072.94;5083983;28;20177;-61
2023/03/18 09:18:12;;;;;;;1999.90;999.90;;;;;;;20.15;57.96;95070.25;5084037;28;20212;-61
2023/03/18 09:20:39;;;;;;;1999.90;999.90;;;;;;;19.94;57.15;95076.81;5084508;28;20179;-59
2023/03/18 09:23:05;;;;;;;1999.90;999.90;;;;;;;20.23;56.53;95071.41;5084477;28;20180;-59
2023/03/18 09:25:31;;;;;;;1999.90;999.90;;;;;;;20.40;56.66;95071.75;5084191;28;20200;-62
2023/03/18 09:27:56;;;;;;;1999.90;999.90;;;;;;;20.40;53.67;95074.53;5083811;28;20228;-61
2023/03/18 09:30:22;;;;;;;1999.90;999.90;;;;;;;20.49;53.89;95072.44;5084391;28;20260;-60
2023/03/18 09:32:47;;;;;;;1999.90;999.90;;;;;;;20.36;53.48;95073.94;5083764;28;20222;-59
2023/03/18 09:35:13;;;;;;;1999.90;999.90;;;;;;;20.31;53.18;95078.13;5083682;28;20181;-60
2023/03/18 09:37:39;;;;;;;1999.90;999.90;;;;;;;20.33;55.47;95075.66;5083932;28;20177;-60
2023/03/18 09:40:06;;;;;;;1999.90;999.90;;;;;;;20.45;53.80;95080.19;5083711;28;20242;-60
2023/03/18 09:42:55;;;;;;;1999.90;999.90;;;;;;;20.57;53.17;95073.59;5083841;28;20173;-60
2023/03/18 09:45:32;;;;;;;1999.90;999.90;;;;;;;20.60;52.19;95082.97;5084350;28;20377;-60
2023/03/18 09:48:00;;;;;;;1999.90;999.90;;;;;;;20.43;52.48;95068.03;5083717;28;20205;-61
2023/03/18 09:50:49;;;;;;;1999.90;999.90;;;;;;;19.98;54.62;95071.84;5084457;28;20173;-60
2023/03/18 09:53:47;;;;;;;1999.90;999.90;;;;;;;20.05;55.52;95067.97;5083881;28;20161;-59
2023/03/18 09:56:22;;;;;;;1999.90;999.90;;;;;;;20.31;54.96;95066.25;5084186;28;20353;-59
2023/03/18 09:59:02;;;;;;;1999.90;999.90;;;;;;;21.05;52.67;95068.72;5084161;28;20156;-60
2023/03/18 10:01:29;;;;;;;1999.90;999.90;;;;;;;20.49;50.42;95072.44;5084227;28;20157;-59
2023/03/18 10:04:03;;;;;;;1999.90;999.90;;;;;;;21.74;47.26;95069.59;5083472;28;20241;-59
2023/03/18 10:06:29;;;;;;;1999.90;999.90;;;;;;;22.27;46.31;95070.09;5084102;28;20173;-60
2023/03/18 10:09:19;;;;;;;1999.90;999.90;;;;;;;22.72;43.68;95079.75;5083462;28;20199;-60
2023/03/18 10:11:47;;;;;;;1999.90;999.90;;;;;;;23.32;42.69;95076.06;5083901;28;20161;-60
2023/03/18 10:14:25;;;;;;;1999.90;999.90;;;;;;;23.30;40.82;95076.56;5083346;28;20418;-59
2023/03/18 10:17:13;;;;;;;1999.90;999.90;;;;;;;23.46;40.87;95075.19;5083320;28;20169;-59
2023/03/18 10:19:45;;;;;;;1999.90;999.90;;;;;;;23.39;39.77;95081.22;5083678;28;20215;-60
2023/03/18 10:22:32;;;;;;;1999.90;999.90;;;;;;;23.54;37.72;95079.06;5083960;28;20197;-59
2023/03/18 10:25:05;;;;;;;1999.90;999.90;;;;;;;24.05;38.30;95078.94;5084818;28;20242;-60
2023/03/18 10:27:59;;;;;;;1999.90;999.90;;;;;;;22.89;40.49;95079.94;5087052;28;20395;-61
2023/03/18 10:30:51;;;;;;;1999.90;999.90;;;;;;;23.39;39.20;95070.84;5086869;28;20219;-60
2023/03/18 10:33:35;;;;;;;1999.90;999.90;;;;;;;23.41;39.15;95079.44;5087063;28;20177;-60
2023/03/18 10:36:18;;;;;;;1999.90;999.90;;;;;;;22.44;38.82;95075.88;5087324;28;20165;-60
2023/03/18 10:38:49;;;;;;;1999.90;999.90;;;;;;;23.10;36.84;95075.84;5087513;28;20174;-60
2023/03/18 10:41:37;;;;;;;1999.90;999.90;;;;;;;22.65;36.96;95076.66;5087527;28;20169;-61
2023/03/18 10:44:17;;;;;;;1999.90;999.90;;;;;;;24.16;36.62;95071.41;5086662;28;20172;-61
2023/03/18 10:46:45;;;;;;;1999.90;999.90;;;;;;;23.66;37.13;95064.69;5087295;28;20220;-61
2023/03/18 10:49:31;;;;;;;1999.90;999.90;;;;;;;24.79;35.76;95063.53;5086799;28;20240;-60
2023/03/18 10:52:01;;;;;;;1999.90;999.90;;;;;;;24.51;34.58;95057.84;5087250;28;20244;-62
2023/03/18 10:54:33;;;;;;;1999.90;999.90;;;;;;;23.41;35.96;95059.19;5087465;28;20238;-61